createdAt,value
2023-05-14T00:01:57.576Z,90.10
2023-05-14T00:04:24.640Z,90.00
2023-05-14T00:06:52.251Z,90.00
2023-05-14T00:09:19.093Z,89.70
2023-05-14T00:11:46.492Z,89.80
2023-05-14T00:14:13.156Z,90.00
2023-05-14T00:16:40.075Z,89.90
2023-05-14T00:19:07.272Z,89.20
2023-05-14T00:21:34.423Z,88.80
2023-05-14T00:24:03.990Z,88.90
2023-05-14T00:26:31.222Z,89.30
2023-05-14T00:28:57.899Z,89.20
2023-05-14T00:31:25.206Z,89.10
2023-05-14T00:33:55.245Z,89.30
2023-05-14T00:36:23.135Z,89.00
2023-05-14T00:38:51.005Z,89.00
2023-05-14T00:41:25.398Z,89.00
2023-05-14T00:43:53.307Z,88.70
2023-05-14T00:46:20.426Z,88.80
2023-05-14T00:48:47.303Z,88.90
2023-05-14T00:51:15.370Z,89.30
2023-05-14T00:53:42.367Z,89.60
2023-05-14T00:56:09.444Z,89.20
2023-05-14T00:58:36.185Z,88.70
2023-05-14T01:01:05.674Z,88.80
2023-05-14T01:03:32.467Z,88.60
2023-05-14T01:06:08.012Z,88.70
2023-05-14T01:08:53.450Z,88.80
2023-05-14T01:11:24.884Z,88.70
2023-05-14T01:13:51.463Z,88.80
2023-05-14T01:16:19.029Z,88.90
2023-05-14T01:18:46.782Z,89.00
2023-05-14T01:21:45.907Z,89.10
2023-05-14T01:24:12.791Z,88.90
2023-05-14T01:26:39.650Z,88.70
2023-05-14T01:29:15.678Z,88.70
2023-05-14T01:31:44.304Z,88.70
2023-05-14T01:34:11.816Z,88.70
2023-05-14T01:36:39.513Z,88.70
2023-05-14T01:39:09.473Z,88.80
2023-05-14T01:41:37.372Z,89.00
2023-05-14T01:44:04.102Z,88.70
2023-05-14T01:46:31.737Z,88.40
2023-05-14T01:49:00.918Z,88.60
2023-05-14T01:51:27.941Z,88.40
2023-05-14T01:53:54.581Z,88.50
2023-05-14T01:56:23.452Z,88.60
2023-05-14T01:58:50.396Z,88.60
2023-05-14T02:01:17.101Z,88.70
2023-05-14T02:03:43.968Z,88.60
2023-05-14T02:06:13.297Z,88.80
2023-05-14T02:08:39.966Z,88.80
2023-05-14T02:11:06.831Z,88.90
2023-05-14T02:13:33.428Z,88.80
2023-05-14T02:16:00.323Z,88.80
2023-05-14T02:18:27.018Z,88.80
2023-05-14T02:20:53.739Z,88.80
2023-05-14T02:23:25.655Z,88.70
2023-05-14T02:25:57.967Z,89.00
2023-05-14T02:28:24.598Z,89.10
2023-05-14T02:30:51.461Z,89.10
2023-05-14T02:33:18.452Z,89.10
2023-05-14T02:35:45.480Z,89.00
2023-05-14T02:38:12.433Z,89.20
2023-05-14T02:40:39.092Z,89.10
2023-05-14T02:43:06.312Z,89.20
2023-05-14T02:45:33.020Z,89.20
2023-05-14T02:48:02.083Z,89.20
2023-05-14T02:50:28.805Z,88.90
2023-05-14T02:52:55.974Z,89.00
2023-05-14T02:55:22.790Z,89.10
2023-05-14T02:57:49.599Z,89.00
2023-05-14T03:00:16.262Z,89.10
2023-05-14T03:02:43.867Z,89.10
2023-05-14T03:05:11.153Z,89.00
2023-05-14T03:07:37.786Z,88.80
2023-05-14T03:10:04.651Z,89.10
2023-05-14T03:12:31.470Z,88.90
2023-05-14T03:14:58.071Z,89.00
2023-05-14T03:17:24.770Z,89.00
2023-05-14T03:19:51.380Z,89.30
2023-05-14T03:22:18.328Z,89.20
2023-05-14T03:24:44.982Z,89.20
2023-05-14T03:27:11.602Z,89.10
2023-05-14T03:29:38.206Z,89.00
2023-05-14T03:32:05.263Z,88.90
2023-05-14T03:34:32.994Z,89.10
2023-05-14T03:36:59.682Z,89.10
2023-05-14T03:39:26.315Z,89.00
2023-05-14T03:41:53.260Z,89.10
2023-05-14T03:44:20.965Z,89.20
2023-05-14T03:46:47.798Z,89.30
2023-05-14T03:49:14.638Z,89.20
2023-05-14T03:51:43.561Z,89.20
2023-05-14T03:54:10.372Z,89.30
2023-05-14T03:56:36.996Z,89.10
2023-05-14T03:59:03.801Z,89.20
2023-05-14T04:01:31.727Z,89.10
2023-05-14T04:03:58.622Z,89.10
2023-05-14T04:06:25.755Z,89.10
2023-05-14T04:08:52.341Z,89.20
2023-05-14T04:11:19.149Z,89.20
2023-05-14T04:13:45.785Z,89.20
2023-05-14T04:16:12.664Z,89.00
2023-05-14T04:18:39.354Z,89.10
2023-05-14T04:21:06.025Z,89.20
2023-05-14T04:23:32.743Z,89.20
2023-05-14T04:25:59.391Z,89.20
2023-05-14T04:28:26.320Z,89.10
2023-05-14T04:30:52.921Z,89.20
2023-05-14T04:33:19.782Z,89.10
2023-05-14T04:35:46.743Z,89.10
2023-05-14T04:38:14.629Z,89.00
2023-05-14T04:40:43.970Z,89.00
2023-05-14T04:43:10.835Z,88.90
2023-05-14T04:45:37.597Z,88.90
2023-05-14T04:48:04.581Z,88.90
2023-05-14T04:50:31.551Z,88.80
2023-05-14T04:52:58.196Z,88.70
2023-05-14T04:55:25.106Z,89.00
2023-05-14T04:57:51.745Z,88.90
2023-05-14T05:00:19.332Z,88.80
2023-05-14T05:02:46.277Z,88.90
2023-05-14T05:05:12.994Z,88.60
2023-05-14T05:07:39.800Z,88.60
2023-05-14T05:10:06.872Z,88.80
2023-05-14T05:12:35.552Z,88.40
2023-05-14T05:15:02.266Z,88.60
2023-05-14T05:17:29.513Z,88.80
2023-05-14T05:19:56.404Z,88.80
2023-05-14T05:22:23.371Z,88.20
2023-05-14T05:24:50.210Z,88.00
2023-05-14T05:27:17.029Z,88.40
2023-05-14T05:29:44.323Z,87.80
2023-05-14T05:32:10.956Z,88.40
2023-05-14T05:34:37.824Z,87.70
2023-05-14T05:37:06.007Z,88.20
2023-05-14T05:39:35.322Z,87.80
2023-05-14T05:42:04.803Z,87.90
2023-05-14T05:44:31.885Z,88.20
2023-05-14T05:46:58.847Z,88.40
2023-05-14T05:49:26.291Z,87.70
2023-05-14T05:51:53.200Z,87.60
2023-05-14T05:54:21.088Z,87.50
2023-05-14T05:56:50.089Z,87.70
2023-05-14T05:59:17.007Z,87.40
2023-05-14T06:01:45.061Z,87.40
2023-05-14T06:04:12.747Z,87.80
2023-05-14T06:06:39.362Z,87.20
2023-05-14T06:09:07.654Z,86.90
2023-05-14T06:11:34.530Z,87.10
2023-05-14T06:14:02.586Z,86.80
2023-05-14T06:16:29.259Z,86.60
2023-05-14T06:18:56.697Z,87.10
2023-05-14T06:21:23.383Z,86.60
2023-05-14T06:23:50.524Z,86.30
2023-05-14T06:26:17.948Z,86.20
2023-05-14T06:28:44.781Z,86.40
2023-05-14T06:31:11.404Z,86.30
2023-05-14T06:33:38.069Z,86.10
2023-05-14T06:36:06.013Z,86.50
2023-05-14T06:38:32.688Z,86.40
2023-05-14T06:40:59.575Z,85.70
2023-05-14T06:43:26.378Z,86.60
2023-05-14T06:45:53.592Z,86.10
2023-05-14T06:48:20.248Z,85.90
2023-05-14T06:50:50.066Z,85.80
2023-05-14T06:53:16.863Z,85.60
2023-05-14T06:55:43.764Z,85.40
2023-05-14T06:58:10.744Z,84.80
2023-05-14T07:00:39.961Z,84.50
2023-05-14T07:03:06.929Z,83.80
2023-05-14T07:05:33.621Z,83.60
2023-05-14T07:08:00.378Z,83.50
2023-05-14T07:10:27.189Z,84.10
2023-05-14T07:12:53.889Z,82.50
2023-05-14T07:15:21.161Z,81.80
2023-05-14T07:17:49.992Z,81.00
2023-05-14T07:20:17.795Z,81.20
2023-05-14T07:22:44.878Z,80.60
2023-05-14T07:25:11.577Z,79.60
2023-05-14T07:27:38.350Z,79.30
2023-05-14T07:30:05.426Z,80.40
2023-05-14T07:32:32.105Z,79.50
2023-05-14T07:34:59.202Z,79.80
2023-05-14T07:37:26.285Z,79.70
2023-05-14T07:39:53.494Z,80.90
2023-05-14T07:42:31.717Z,81.10
2023-05-14T07:44:58.859Z,80.30
2023-05-14T07:47:27.937Z,80.20
2023-05-14T07:49:55.300Z,80.00
2023-05-14T07:52:23.399Z,81.80
2023-05-14T07:54:51.469Z,81.90
2023-05-14T07:57:18.948Z,81.90
2023-05-14T07:59:45.876Z,80.70
2023-05-14T08:02:13.386Z,79.60
2023-05-14T08:04:40.078Z,81.20
2023-05-14T08:07:09.194Z,79.90
2023-05-14T08:09:36.960Z,77.90
2023-05-14T08:12:04.020Z,78.50
2023-05-14T08:14:30.804Z,78.40
2023-05-14T08:16:57.703Z,79.30
2023-05-14T08:19:24.650Z,80.40
2023-05-14T08:21:52.002Z,79.80
2023-05-14T08:24:18.941Z,78.70
2023-05-14T08:26:45.823Z,78.70
2023-05-14T08:29:14.682Z,78.60
2023-05-14T08:31:43.032Z,78.20
2023-05-14T08:34:12.734Z,78.30
2023-05-14T08:36:39.401Z,77.10
2023-05-14T08:39:07.948Z,74.90
2023-05-14T08:41:34.990Z,75.20
2023-05-14T08:44:01.814Z,75.70
2023-05-14T08:46:31.025Z,74.50
2023-05-14T08:49:04.527Z,75.40
2023-05-14T08:51:31.565Z,74.30
2023-05-14T08:53:59.253Z,73.90
2023-05-14T08:56:28.722Z,73.10
2023-05-14T08:58:56.112Z,71.20
2023-05-14T09:01:24.129Z,72.10
2023-05-14T09:03:51.823Z,73.30
2023-05-14T09:06:21.252Z,72.50
2023-05-14T09:08:47.911Z,71.10
2023-05-14T09:11:14.843Z,73.40
2023-05-14T09:13:41.849Z,72.40
2023-05-14T09:16:08.738Z,72.70
2023-05-14T09:18:36.266Z,75.10
2023-05-14T09:21:03.077Z,72.70
2023-05-14T09:23:33.139Z,72.90
2023-05-14T09:26:03.781Z,74.20
2023-05-14T09:28:30.851Z,75.40
2023-05-14T09:30:57.508Z,74.20
2023-05-14T09:33:28.718Z,73.30
2023-05-14T09:35:58.675Z,73.10
2023-05-14T09:38:32.816Z,73.50
2023-05-14T09:40:59.966Z,72.90
2023-05-14T09:43:29.126Z,74.00
2023-05-14T09:45:55.940Z,74.60
2023-05-14T09:48:23.180Z,74.20
2023-05-14T09:50:50.866Z,73.90
2023-05-14T09:53:17.918Z,74.80
2023-05-14T09:55:47.165Z,73.50
2023-05-14T09:58:14.732Z,74.50
2023-05-14T10:00:46.105Z,73.50
2023-05-14T10:03:14.198Z,72.70
2023-05-14T10:05:42.058Z,72.00
2023-05-14T10:08:08.666Z,71.50
2023-05-14T10:10:35.727Z,70.30
2023-05-14T10:13:04.794Z,70.10
2023-05-14T10:15:41.199Z,70.80
2023-05-14T10:18:12.899Z,69.80
2023-05-14T10:20:41.299Z,69.20
2023-05-14T10:23:08.280Z,67.20
2023-05-14T10:25:35.427Z,67.10
2023-05-14T10:28:04.177Z,67.20
2023-05-14T10:30:31.795Z,69.00
2023-05-14T10:33:16.973Z,69.80
2023-05-14T10:36:04.903Z,68.50
2023-05-14T10:38:35.610Z,67.10
2023-05-14T10:41:07.409Z,67.50
2023-05-14T10:43:38.077Z,71.90
2023-05-14T10:46:05.196Z,70.50
2023-05-14T10:48:33.199Z,69.50
2023-05-14T10:51:05.206Z,68.80
2023-05-14T10:53:37.245Z,65.30
2023-05-14T10:56:08.808Z,65.10
2023-05-14T10:58:38.066Z,67.70
2023-05-14T11:01:07.367Z,66.20
2023-05-14T11:03:41.115Z,62.60
2023-05-14T11:06:22.983Z,62.40
2023-05-14T11:08:51.543Z,64.00
2023-05-14T11:11:19.132Z,64.00
2023-05-14T11:13:46.702Z,63.50
2023-05-14T11:18:48.457Z,61.50
2023-05-14T11:21:17.279Z,61.20
2023-05-14T11:23:48.402Z,59.30
2023-05-14T11:26:15.126Z,57.60
2023-05-14T11:28:41.799Z,57.60
2023-05-14T11:31:08.651Z,56.90
2023-05-14T11:33:36.078Z,57.60
2023-05-14T11:36:06.074Z,57.60
2023-05-14T11:38:33.727Z,58.10
2023-05-14T11:41:01.892Z,55.60
2023-05-14T11:43:29.309Z,59.80
2023-05-14T11:45:57.969Z,56.40
2023-05-14T11:48:24.789Z,58.30
2023-05-14T11:50:54.754Z,53.70
2023-05-14T11:53:27.208Z,55.30
2023-05-14T11:55:54.586Z,57.40
2023-05-14T11:58:21.856Z,59.70
2023-05-14T12:00:52.602Z,58.80
2023-05-14T12:03:25.967Z,58.70
2023-05-14T12:05:59.901Z,57.20
2023-05-14T12:08:32.025Z,56.50
2023-05-14T12:10:59.675Z,57.00
2023-05-14T12:13:29.794Z,57.00
2023-05-14T12:15:58.246Z,55.10
2023-05-14T12:18:26.363Z,55.70
2023-05-14T12:20:53.556Z,55.50
2023-05-14T12:23:27.210Z,53.70
2023-05-14T12:25:54.034Z,54.40
2023-05-14T12:28:23.612Z,56.60
2023-05-14T12:30:56.603Z,59.50
2023-05-14T12:33:24.089Z,59.70
2023-05-14T12:35:51.098Z,56.70
2023-05-14T12:38:17.791Z,56.80
2023-05-14T12:40:44.833Z,58.70
2023-05-14T12:43:11.538Z,55.70
2023-05-14T12:45:38.416Z,56.60
2023-05-14T12:48:05.316Z,56.10
2023-05-14T12:50:32.296Z,54.10
2023-05-14T12:53:00.204Z,55.10
2023-05-14T12:55:26.869Z,55.90
2023-05-14T12:57:54.802Z,52.90
2023-05-14T13:00:21.431Z,53.40
2023-05-14T13:02:48.561Z,54.70
2023-05-14T13:05:15.653Z,52.50
2023-05-14T13:07:42.802Z,52.30
2023-05-14T13:10:12.185Z,54.10
2023-05-14T13:12:39.140Z,54.10
2023-05-14T13:15:06.394Z,57.60
2023-05-14T13:17:33.089Z,56.50
2023-05-14T13:19:59.893Z,57.30
2023-05-14T13:22:26.816Z,57.00
2023-05-14T13:24:53.414Z,56.30
2023-05-14T13:27:20.401Z,57.40
2023-05-14T13:29:47.160Z,57.50
2023-05-14T13:32:14.058Z,51.40
2023-05-14T13:34:40.781Z,52.50
2023-05-14T13:37:07.625Z,53.90
2023-05-14T13:39:34.512Z,54.00
2023-05-14T13:42:03.990Z,57.00
2023-05-14T13:44:31.228Z,58.50
2023-05-14T13:46:57.849Z,62.40
2023-05-14T13:49:24.441Z,64.50
2023-05-14T13:51:51.258Z,66.60
2023-05-14T13:54:19.001Z,70.30
2023-05-14T13:56:46.086Z,70.70
2023-05-14T13:59:12.850Z,70.50
2023-05-14T14:01:39.484Z,75.50
2023-05-14T14:04:06.441Z,73.10
2023-05-14T14:06:33.437Z,72.90
2023-05-14T14:09:00.526Z,68.20
2023-05-14T14:11:27.974Z,68.70
2023-05-14T14:13:54.953Z,68.20
2023-05-14T14:16:22.121Z,68.50
2023-05-14T14:18:49.027Z,66.70
2023-05-14T14:21:18.115Z,66.60
2023-05-14T14:23:48.387Z,67.70
2023-05-14T14:26:15.242Z,67.20
2023-05-14T14:28:42.145Z,67.10
2023-05-14T14:31:09.206Z,67.50
2023-05-14T14:33:36.182Z,68.40
2023-05-14T14:36:04.169Z,67.40
2023-05-14T14:38:31.006Z,66.50
2023-05-14T14:40:58.199Z,65.60
2023-05-14T14:43:24.776Z,66.90
2023-05-14T14:45:51.427Z,65.00
2023-05-14T14:48:24.655Z,65.50
2023-05-14T14:50:52.542Z,63.90
2023-05-14T14:53:20.178Z,63.20
2023-05-14T14:55:49.955Z,64.10
2023-05-14T14:58:18.537Z,63.70
2023-05-14T15:00:45.776Z,64.40
2023-05-14T15:03:12.988Z,64.10
2023-05-14T15:05:42.119Z,64.00
2023-05-14T15:08:08.806Z,66.10
2023-05-14T15:10:39.852Z,64.80
2023-05-14T15:13:06.976Z,63.90
2023-05-14T15:15:34.275Z,63.50
2023-05-14T15:18:01.055Z,62.40
2023-05-14T15:20:28.171Z,61.40
2023-05-14T15:23:01.193Z,61.00
2023-05-14T15:25:28.037Z,61.40
2023-05-14T15:27:55.732Z,62.50
2023-05-14T15:30:24.643Z,63.30
2023-05-14T15:32:51.321Z,64.00
2023-05-14T15:35:18.795Z,66.00
2023-05-14T15:37:46.090Z,65.60
2023-05-14T15:40:13.128Z,66.80
2023-05-14T15:42:42.250Z,67.40
2023-05-14T15:45:09.585Z,69.10
2023-05-14T15:47:36.350Z,68.40
2023-05-14T15:50:03.874Z,68.10
2023-05-14T15:52:31.019Z,69.00
2023-05-14T15:54:59.486Z,70.00
2023-05-14T15:57:26.426Z,69.30
2023-05-14T15:59:53.124Z,70.60
2023-05-14T16:02:20.027Z,70.50
2023-05-14T16:04:46.765Z,69.30
2023-05-14T16:07:13.868Z,68.60
2023-05-14T16:09:40.619Z,70.50
2023-05-14T16:12:07.821Z,70.70
2023-05-14T16:14:35.892Z,70.90
2023-05-14T16:17:02.574Z,71.00
2023-05-14T16:19:30.726Z,71.70
2023-05-14T16:21:59.095Z,71.90
2023-05-14T16:24:26.104Z,71.70
2023-05-14T16:26:53.204Z,72.80
2023-05-14T16:29:19.961Z,72.90
2023-05-14T16:31:47.096Z,73.70
2023-05-14T16:34:13.821Z,73.30
2023-05-14T16:36:41.744Z,73.90
2023-05-14T16:39:08.843Z,74.90
2023-05-14T16:41:35.766Z,75.20
2023-05-14T16:44:02.535Z,75.00
2023-05-14T16:46:30.550Z,75.60
2023-05-14T16:48:57.845Z,75.10
2023-05-14T16:51:24.555Z,75.70
2023-05-14T16:53:52.060Z,76.50
2023-05-14T16:56:19.359Z,77.70
2023-05-14T16:58:46.507Z,77.70
2023-05-14T17:01:15.455Z,76.60
2023-05-14T17:03:42.234Z,77.20
2023-05-14T17:06:12.414Z,78.30
2023-05-14T17:08:39.037Z,79.10
2023-05-14T17:11:06.101Z,78.90
2023-05-14T17:13:33.099Z,78.90
2023-05-14T17:16:00.718Z,78.50
2023-05-14T17:18:27.854Z,80.20
2023-05-14T17:20:55.484Z,80.30
2023-05-14T17:23:23.497Z,80.80
2023-05-14T17:25:50.148Z,80.00
2023-05-14T17:28:17.199Z,80.80
2023-05-14T17:30:43.944Z,78.90
2023-05-14T17:33:11.521Z,79.10
2023-05-14T17:35:39.423Z,79.80
2023-05-14T17:38:06.562Z,79.30
2023-05-14T17:40:36.759Z,80.40
2023-05-14T17:43:04.829Z,80.40
2023-05-14T17:45:39.365Z,79.00
2023-05-14T17:48:13.882Z,80.20
2023-05-14T17:50:40.754Z,80.60
2023-05-14T17:53:07.467Z,80.40
2023-05-14T17:55:40.202Z,81.10
2023-05-14T17:58:07.194Z,80.90
2023-05-14T18:00:34.332Z,80.00
2023-05-14T18:03:01.118Z,81.60
2023-05-14T18:05:30.570Z,81.60
2023-05-14T18:07:58.769Z,80.80
2023-05-14T18:10:28.136Z,81.60
2023-05-14T18:12:55.004Z,81.50
2023-05-14T18:15:25.003Z,81.50
2023-05-14T18:17:52.512Z,81.80
2023-05-14T18:20:20.795Z,81.10
2023-05-14T18:22:47.738Z,82.20
2023-05-14T18:25:15.823Z,81.70
2023-05-14T18:27:45.662Z,81.90
2023-05-14T18:30:15.750Z,82.00
2023-05-14T18:32:46.183Z,81.70
2023-05-14T18:35:15.010Z,83.00
2023-05-14T18:37:41.745Z,82.40
2023-05-14T18:40:09.164Z,82.70
2023-05-14T18:42:38.179Z,82.10
2023-05-14T18:45:05.071Z,82.50
2023-05-14T18:47:32.941Z,82.40
2023-05-14T18:50:02.254Z,82.70
2023-05-14T18:52:29.475Z,84.00
2023-05-14T18:54:56.291Z,84.70
2023-05-14T18:57:23.257Z,84.90
2023-05-14T18:59:49.891Z,84.90
2023-05-14T19:02:17.080Z,85.00
2023-05-14T19:04:52.202Z,84.80
2023-05-14T19:07:19.836Z,85.00
2023-05-14T19:09:47.907Z,85.30
2023-05-14T19:12:15.286Z,85.50
2023-05-14T19:14:42.425Z,85.60
2023-05-14T19:17:09.500Z,85.50
2023-05-14T19:19:36.560Z,85.50
2023-05-14T19:22:03.327Z,85.40
2023-05-14T19:24:30.547Z,85.30
2023-05-14T19:26:57.419Z,85.10
2023-05-14T19:29:24.900Z,85.40
2023-05-14T19:31:51.844Z,85.80
2023-05-14T19:34:18.785Z,85.90
2023-05-14T19:36:45.676Z,86.00
2023-05-14T19:39:12.523Z,86.30
2023-05-14T19:41:39.544Z,85.50
2023-05-14T19:44:08.774Z,86.10
2023-05-14T19:46:35.799Z,86.40
2023-05-14T19:49:03.761Z,86.60
2023-05-14T19:51:31.193Z,86.40
2023-05-14T19:53:59.767Z,86.60
2023-05-14T19:56:27.368Z,86.40
2023-05-14T19:58:54.418Z,86.50
2023-05-14T20:01:24.699Z,86.40
2023-05-14T20:03:53.784Z,86.40
2023-05-14T20:06:20.457Z,86.20
2023-05-14T20:08:47.291Z,86.70
2023-05-14T20:11:15.597Z,86.50
2023-05-14T20:13:42.308Z,86.70
2023-05-14T20:16:09.194Z,86.70
2023-05-14T20:18:36.773Z,87.00
2023-05-14T20:21:03.848Z,86.90
2023-05-14T20:23:30.631Z,86.80
2023-05-14T20:25:57.270Z,86.90
2023-05-14T20:28:26.565Z,86.40
2023-05-14T20:30:54.685Z,86.70
2023-05-14T20:33:22.111Z,87.10
2023-05-14T20:35:48.770Z,87.10
2023-05-14T20:38:17.318Z,87.10
2023-05-14T20:40:44.835Z,86.90
2023-05-14T20:43:11.693Z,86.90
2023-05-14T20:45:39.093Z,86.50
2023-05-14T20:48:10.229Z,85.70
2023-05-14T20:50:37.066Z,85.80
2023-05-14T20:53:03.898Z,86.40
2023-05-14T20:55:30.698Z,86.40
2023-05-14T20:57:57.346Z,86.80
2023-05-14T21:00:24.183Z,86.80
2023-05-14T21:02:50.893Z,86.80
2023-05-14T21:05:18.076Z,86.60
2023-05-14T21:07:44.735Z,86.10
2023-05-14T21:10:11.468Z,86.90
2023-05-14T21:12:38.292Z,87.40
2023-05-14T21:15:05.166Z,87.30
2023-05-14T21:17:32.479Z,87.30
2023-05-14T21:19:59.098Z,87.20
2023-05-14T21:22:26.756Z,87.00
2023-05-14T21:24:55.011Z,87.00
2023-05-14T21:27:22.009Z,87.10
2023-05-14T21:29:48.867Z,87.00
2023-05-14T21:32:16.046Z,87.10
2023-05-14T21:34:43.159Z,87.40
2023-05-14T21:37:10.337Z,87.40
2023-05-14T21:39:37.501Z,87.70
2023-05-14T21:42:04.429Z,87.60
2023-05-14T21:44:31.262Z,87.80
2023-05-14T21:46:57.937Z,87.70
2023-05-14T21:49:24.660Z,88.00
2023-05-14T21:51:53.135Z,87.70
2023-05-14T21:54:24.005Z,87.90
2023-05-14T21:56:51.431Z,87.80
2023-05-14T21:59:18.168Z,87.80
2023-05-14T22:04:15.113Z,87.90
2023-05-14T22:06:43.433Z,88.00
2023-05-14T22:09:11.100Z,88.00
2023-05-14T22:11:38.185Z,87.90
2023-05-14T22:14:05.442Z,87.70
2023-05-14T22:16:32.686Z,87.90
2023-05-14T22:18:59.687Z,87.20
2023-05-14T22:21:26.375Z,87.20
2023-05-14T22:23:53.168Z,87.70
2023-05-14T22:26:21.068Z,87.70
2023-05-14T22:28:48.739Z,87.60
2023-05-14T22:31:15.709Z,87.70
2023-05-14T22:33:42.514Z,87.10
2023-05-14T22:36:09.639Z,87.20
2023-05-14T22:38:36.304Z,87.30
2023-05-14T22:41:03.544Z,87.50
2023-05-14T22:43:30.348Z,87.20
2023-05-14T22:45:57.235Z,87.50
2023-05-14T22:48:24.628Z,87.70
2023-05-14T22:50:51.881Z,87.80
2023-05-14T22:53:18.608Z,87.70
2023-05-14T22:55:45.550Z,87.80
2023-05-14T22:58:12.382Z,87.90
2023-05-14T23:00:39.161Z,87.70
2023-05-14T23:03:07.911Z,87.50
2023-05-14T23:05:36.612Z,87.70
2023-05-14T23:08:03.894Z,87.40
2023-05-14T23:10:30.863Z,87.60
2023-05-14T23:12:57.507Z,87.50
2023-05-14T23:15:24.612Z,87.20
2023-05-14T23:17:52.870Z,87.30
2023-05-14T23:20:22.460Z,87.30
2023-05-14T23:22:50.248Z,87.40
2023-05-14T23:25:17.303Z,87.60
2023-05-14T23:27:44.127Z,87.80
2023-05-14T23:30:11.023Z,87.70
2023-05-14T23:32:38.117Z,87.70
2023-05-14T23:35:05.235Z,87.80
2023-05-14T23:37:34.602Z,88.20
2023-05-14T23:40:01.746Z,88.30
2023-05-14T23:42:28.776Z,88.00
2023-05-14T23:44:55.498Z,88.00
2023-05-14T23:47:22.567Z,87.90
2023-05-14T23:49:49.566Z,87.70
2023-05-14T23:52:18.929Z,88.00
2023-05-14T23:54:45.899Z,87.70
2023-05-14T23:57:14.654Z,87.90
2023-05-14T23:59:41.634Z,87.40
